createdAt,value
2023-03-06T00:01:03.651Z,4.50
2023-03-06T00:03:56.236Z,4.50
2023-03-06T00:09:39.616Z,5.10
2023-03-06T00:12:24.573Z,7.00
2023-03-06T00:18:04.166Z,6.10
2023-03-06T00:20:56.434Z,6.70
2023-03-06T00:23:42.177Z,10.40
2023-03-06T00:26:17.369Z,18.50
2023-03-06T00:29:00.832Z,20.00
2023-03-06T00:34:37.932Z,6.10
2023-03-06T00:37:15.115Z,7.60
2023-03-06T00:40:11.294Z,6.50
2023-03-06T00:43:03.603Z,5.40
2023-03-06T00:45:50.100Z,6.00
2023-03-06T00:48:42.257Z,3.90
2023-03-06T00:51:34.587Z,4.40
2023-03-06T00:54:19.481Z,12.70
2023-03-06T00:57:03.285Z,29.20
2023-03-06T01:02:37.044Z,7.50
2023-03-06T01:08:20.192Z,10.80
2023-03-06T01:11:12.578Z,9.70
2023-03-06T01:16:36.014Z,7.80
2023-03-06T01:19:28.365Z,9.50
2023-03-06T01:22:05.412Z,6.80
2023-03-06T01:24:57.647Z,6.70
2023-03-06T01:27:50.013Z,8.50
2023-03-06T01:30:35.917Z,13.10
2023-03-06T01:33:28.220Z,18.20
2023-03-06T01:39:05.107Z,11.30
2023-03-06T01:41:57.355Z,3.90
2023-03-06T01:45:04.322Z,6.20
2023-03-06T01:47:50.029Z,5.00
2023-03-06T01:50:42.651Z,3.80
2023-03-06T01:53:35.208Z,5.60
2023-03-06T01:56:28.011Z,4.10
2023-03-06T01:59:04.416Z,5.70
2023-03-06T02:01:42.707Z,5.30
2023-03-06T02:04:36.245Z,4.70
2023-03-06T02:07:23.842Z,5.80
2023-03-06T02:10:11.271Z,6.00
2023-03-06T02:13:03.867Z,6.20
2023-03-06T02:15:50.161Z,10.00
2023-03-06T02:18:31.492Z,11.00
2023-03-06T02:21:27.149Z,4.30
2023-03-06T02:24:15.778Z,3.30
2023-03-06T02:27:04.459Z,2.90
2023-03-06T02:29:41.516Z,2.40
2023-03-06T02:32:34.088Z,3.50
2023-03-06T02:38:17.201Z,2.50
2023-03-06T02:41:10.777Z,3.20
2023-03-06T02:44:03.242Z,3.90
2023-03-06T02:46:55.478Z,4.20
2023-03-06T02:49:47.814Z,4.10
2023-03-06T02:52:33.718Z,5.40
2023-03-06T02:55:22.570Z,4.30
2023-03-06T02:58:08.254Z,4.20
2023-03-06T03:00:45.536Z,4.10
2023-03-06T03:03:36.713Z,4.40
2023-03-06T03:06:29.073Z,7.70
2023-03-06T03:09:21.612Z,5.40
2023-03-06T03:12:14.471Z,6.10
2023-03-06T03:14:56.944Z,6.10
2023-03-06T03:17:29.674Z,5.90
2023-03-06T03:20:17.744Z,6.00
2023-03-06T03:23:10.052Z,5.90
2023-03-06T03:26:10.927Z,6.10
2023-03-06T03:29:04.747Z,6.50
2023-03-06T03:31:51.528Z,5.90
2023-03-06T03:37:34.778Z,3.50
2023-03-06T03:43:17.655Z,3.70
2023-03-06T03:46:03.763Z,3.40
2023-03-06T03:48:47.085Z,4.70
2023-03-06T03:51:39.509Z,4.90
2023-03-06T03:57:22.205Z,5.60
2023-03-06T04:00:17.177Z,9.70
2023-03-06T04:03:05.817Z,8.30
2023-03-06T04:05:58.313Z,10.80
2023-03-06T04:11:40.172Z,12.80
2023-03-06T04:14:25.167Z,17.50
2023-03-06T04:17:17.415Z,12.30
2023-03-06T04:19:54.912Z,12.10
2023-03-06T04:22:41.261Z,12.50
2023-03-06T04:25:33.200Z,13.50
2023-03-06T04:28:09.734Z,12.70
2023-03-06T04:31:02.183Z,6.60
2023-03-06T04:33:53.230Z,6.30
2023-03-06T04:36:36.775Z,13.10
2023-03-06T04:39:27.887Z,10.20
2023-03-06T04:42:04.828Z,8.50
2023-03-06T04:44:57.286Z,5.80
2023-03-06T04:47:40.795Z,7.70
2023-03-06T04:50:32.753Z,23.10
2023-03-06T04:53:21.400Z,11.30
2023-03-06T04:55:56.223Z,10.10
2023-03-06T04:58:42.549Z,14.70
2023-03-06T05:01:34.741Z,20.20
2023-03-06T05:04:18.024Z,19.00
2023-03-06T05:07:10.909Z,11.40
2023-03-06T05:10:03.260Z,7.90
2023-03-06T05:12:55.728Z,33.80
2023-03-06T05:18:39.135Z,36.30
2023-03-06T05:24:22.236Z,18.20
2023-03-06T05:30:12.584Z,21.90
2023-03-06T05:33:04.889Z,25.60
2023-03-06T05:35:50.944Z,21.20
2023-03-06T05:38:34.638Z,19.50
2023-03-06T05:41:27.007Z,15.90
2023-03-06T05:44:19.244Z,20.00
2023-03-06T05:47:12.138Z,18.40
2023-03-06T05:52:40.808Z,18.90
2023-03-06T05:55:32.228Z,17.40
2023-03-06T05:58:29.266Z,12.80
2023-03-06T06:01:15.513Z,12.90
2023-03-06T06:03:52.824Z,13.10
2023-03-06T06:06:29.714Z,13.00
2023-03-06T06:09:22.434Z,14.90
2023-03-06T06:12:15.601Z,17.00
2023-03-06T06:14:51.387Z,22.80
2023-03-06T06:17:26.821Z,31.50
2023-03-06T06:20:12.569Z,32.70
2023-03-06T06:22:47.956Z,25.90
2023-03-06T06:25:40.415Z,17.00
2023-03-06T06:28:25.277Z,13.50
2023-03-06T06:31:14.744Z,16.50
2023-03-06T06:34:08.481Z,16.00
2023-03-06T06:37:00.880Z,13.90
2023-03-06T06:39:53.429Z,13.60
2023-03-06T06:42:47.271Z,17.10
2023-03-06T06:45:39.782Z,32.90
2023-03-06T06:48:19.440Z,60.90
2023-03-06T06:51:12.112Z,67.70
2023-03-06T06:54:04.782Z,40.90
2023-03-06T06:56:57.199Z,53.60
2023-03-06T07:02:40.436Z,31.00
2023-03-06T07:05:32.959Z,23.70
2023-03-06T07:08:17.667Z,20.40
2023-03-06T07:11:12.487Z,16.70
2023-03-06T07:13:57.103Z,16.10
2023-03-06T07:16:49.544Z,16.00
2023-03-06T07:19:41.839Z,14.50
2023-03-06T07:22:25.488Z,17.80
2023-03-06T07:25:17.995Z,20.40
2023-03-06T07:31:01.229Z,15.00
2023-03-06T07:33:53.362Z,12.60
2023-03-06T07:36:40.519Z,12.70
2023-03-06T07:39:32.911Z,11.80
2023-03-06T07:42:11.387Z,11.10
2023-03-06T07:44:50.920Z,12.80
2023-03-06T07:47:36.162Z,11.80
2023-03-06T07:50:28.738Z,11.30
2023-03-06T07:53:12.106Z,11.90
2023-03-06T07:55:57.764Z,12.20
2023-03-06T07:58:49.170Z,13.60
2023-03-06T08:01:42.034Z,16.00
2023-03-06T08:04:19.865Z,19.00
2023-03-06T08:10:03.279Z,17.00
2023-03-06T08:12:37.765Z,14.80
2023-03-06T08:15:22.510Z,15.40
2023-03-06T08:18:14.906Z,14.60
2023-03-06T08:20:52.265Z,14.70
2023-03-06T08:23:45.102Z,14.10
2023-03-06T08:26:21.431Z,13.00
2023-03-06T08:29:04.257Z,12.40
2023-03-06T08:31:56.739Z,12.00
2023-03-06T08:37:38.375Z,16.10
2023-03-06T08:40:31.179Z,12.40
2023-03-06T08:43:23.524Z,15.80
2023-03-06T08:46:16.006Z,15.50
2023-03-06T08:48:59.611Z,16.00
2023-03-06T08:51:53.074Z,13.90
2023-03-06T08:54:37.524Z,13.80
2023-03-06T08:57:20.771Z,12.00
2023-03-06T09:00:15.544Z,10.90
2023-03-06T09:03:08.139Z,10.40
2023-03-06T09:06:03.661Z,9.90
2023-03-06T09:08:55.420Z,9.00
2023-03-06T09:11:48.352Z,10.10
2023-03-06T09:14:23.673Z,9.00
2023-03-06T09:17:14.900Z,8.30
2023-03-06T09:20:10.604Z,8.20
2023-03-06T09:22:46.033Z,8.30
2023-03-06T09:25:38.652Z,8.10
2023-03-06T09:28:22.163Z,7.40
2023-03-06T09:30:59.466Z,11.40
2023-03-06T09:33:52.165Z,8.50
2023-03-06T09:36:49.311Z,7.30
2023-03-06T09:39:31.397Z,8.20
2023-03-06T09:42:03.696Z,8.00
2023-03-06T09:44:52.762Z,7.30
2023-03-06T09:47:50.438Z,6.10
2023-03-06T09:50:42.848Z,10.60
2023-03-06T09:53:50.827Z,12.10
2023-03-06T09:56:31.147Z,6.30
2023-03-06T10:04:41.626Z,11.20
2023-03-06T10:07:24.401Z,6.30
2023-03-06T10:10:01.010Z,5.40
2023-03-06T10:12:38.806Z,5.50
2023-03-06T10:15:36.180Z,5.10
2023-03-06T10:18:08.946Z,4.80
2023-03-06T10:20:54.674Z,11.30
2023-03-06T10:23:55.700Z,6.00
2023-03-06T10:26:44.663Z,6.40
2023-03-06T10:30:01.655Z,5.40
2023-03-06T10:32:50.337Z,5.70
2023-03-06T10:35:31.092Z,5.70
2023-03-06T10:38:19.517Z,9.60
2023-03-06T10:41:25.475Z,6.80
2023-03-06T10:44:26.835Z,6.10
2023-03-06T10:47:35.372Z,4.70
2023-03-06T10:50:28.990Z,4.70
2023-03-06T10:53:23.639Z,4.50
2023-03-06T10:56:07.353Z,3.90
2023-03-06T10:59:13.622Z,4.60
2023-03-06T11:01:52.748Z,4.10
2023-03-06T11:04:30.745Z,4.00
2023-03-06T11:07:19.405Z,4.80
2023-03-06T11:10:19.146Z,5.50
2023-03-06T11:13:06.289Z,8.70
2023-03-06T11:15:38.903Z,12.00
2023-03-06T11:18:36.005Z,8.70
2023-03-06T11:21:32.435Z,10.40
2023-03-06T11:24:16.745Z,8.40
2023-03-06T11:26:55.574Z,9.60
2023-03-06T11:29:44.762Z,10.30
2023-03-06T11:32:46.863Z,10.70
2023-03-06T11:35:24.839Z,11.60
2023-03-06T11:38:17.187Z,7.40
2023-03-06T11:41:04.495Z,9.90
2023-03-06T11:43:47.870Z,17.00
2023-03-06T11:46:45.271Z,7.80
2023-03-06T11:49:33.345Z,12.50
2023-03-06T11:52:28.663Z,13.90
2023-03-06T11:55:35.656Z,13.50
2023-03-06T11:58:54.816Z,11.60
2023-03-06T12:02:06.740Z,15.90
2023-03-06T12:05:10.277Z,15.80
2023-03-06T12:08:16.262Z,8.90
2023-03-06T12:14:15.659Z,56.60
2023-03-06T12:17:23.798Z,43.80
2023-03-06T12:20:41.528Z,110.20
2023-03-06T12:23:29.942Z,29.40
2023-03-06T12:26:38.210Z,13.70
2023-03-06T12:29:36.133Z,19.70
2023-03-06T12:32:30.185Z,7.60
2023-03-06T12:35:51.607Z,7.50
2023-03-06T12:39:04.572Z,8.30
2023-03-06T12:45:05.989Z,7.50
2023-03-06T12:47:51.347Z,9.10
2023-03-06T12:50:38.383Z,11.90
2023-03-06T12:53:28.044Z,11.70
2023-03-06T12:56:04.972Z,8.90
2023-03-06T12:58:57.570Z,7.80
2023-03-06T13:02:02.717Z,8.00
2023-03-06T13:08:01.354Z,6.40
2023-03-06T13:11:18.733Z,4.30
2023-03-06T13:13:51.242Z,5.20
2023-03-06T13:16:42.558Z,17.20
2023-03-06T13:19:27.531Z,12.20
2023-03-06T13:22:30.336Z,8.10
2023-03-06T13:25:48.022Z,6.60
2023-03-06T13:28:46.571Z,5.40
2023-03-06T13:32:15.986Z,4.80
2023-03-06T13:35:48.513Z,3.10
2023-03-06T13:39:00.263Z,3.40
2023-03-06T13:42:00.655Z,4.30
2023-03-06T13:44:54.520Z,3.80
2023-03-06T13:48:21.165Z,4.60
2023-03-06T13:51:25.140Z,4.70
2023-03-06T13:54:32.572Z,14.60
2023-03-06T13:57:32.300Z,5.30
2023-03-06T14:00:36.711Z,6.90
2023-03-06T14:04:07.683Z,5.10
2023-03-06T14:07:06.516Z,3.80
2023-03-06T14:09:53.851Z,4.50
2023-03-06T14:12:34.121Z,3.30
2023-03-06T14:15:31.661Z,4.00
2023-03-06T14:18:38.231Z,3.40
2023-03-06T14:21:31.243Z,3.40
2023-03-06T14:24:19.891Z,5.60
2023-03-06T14:27:02.160Z,3.70
2023-03-06T14:32:38.971Z,3.50
2023-03-06T14:35:29.302Z,3.30
2023-03-06T14:38:16.284Z,11.20
2023-03-06T14:41:00.848Z,10.60
2023-03-06T14:43:53.425Z,10.30
2023-03-06T14:46:38.778Z,5.70
2023-03-06T14:49:29.797Z,3.80
2023-03-06T14:52:21.873Z,4.40
2023-03-06T14:55:18.134Z,5.30
2023-03-06T14:57:57.272Z,4.80
2023-03-06T15:00:45.397Z,4.00
2023-03-06T15:03:46.878Z,4.00
2023-03-06T15:06:25.499Z,5.50
2023-03-06T15:09:20.512Z,11.20
2023-03-06T15:12:01.856Z,18.50
2023-03-06T15:15:00.456Z,39.70
2023-03-06T15:17:44.860Z,40.60
2023-03-06T15:20:44.667Z,42.00
2023-03-06T15:23:43.323Z,37.90
2023-03-06T15:26:37.933Z,47.50
2023-03-06T15:29:24.342Z,66.50
2023-03-06T15:32:30.628Z,68.50
2023-03-06T15:35:33.894Z,62.10
2023-03-06T15:39:01.709Z,76.20
2023-03-06T15:41:41.881Z,99.90
2023-03-06T15:44:35.105Z,98.00
2023-03-06T15:47:20.401Z,68.90
2023-03-06T15:50:20.485Z,39.30
2023-03-06T15:53:13.163Z,22.20
2023-03-06T15:56:05.390Z,13.90
2023-03-06T15:58:43.351Z,10.10
2023-03-06T16:01:21.648Z,8.70
2023-03-06T16:04:17.093Z,9.60
2023-03-06T16:07:09.676Z,10.00
2023-03-06T16:09:53.570Z,8.90
2023-03-06T16:12:36.855Z,8.20
2023-03-06T16:15:25.385Z,7.30
2023-03-06T16:18:18.628Z,10.80
2023-03-06T16:21:11.042Z,5.40
2023-03-06T16:23:48.196Z,8.20
2023-03-06T16:26:41.887Z,7.50
2023-03-06T16:29:34.294Z,6.50
2023-03-06T16:32:28.758Z,7.10
2023-03-06T16:35:04.249Z,7.40
2023-03-06T16:38:00.006Z,7.60
2023-03-06T16:40:43.355Z,7.10
2023-03-06T16:43:36.060Z,7.10
2023-03-06T16:46:20.369Z,8.10
2023-03-06T16:49:12.684Z,7.50
2023-03-06T16:52:06.601Z,6.40
2023-03-06T16:54:59.855Z,6.80
2023-03-06T16:57:43.550Z,6.60
2023-03-06T17:00:31.166Z,7.20
2023-03-06T17:03:12.519Z,6.50
2023-03-06T17:06:05.573Z,6.30
2023-03-06T17:08:49.115Z,6.20
2023-03-06T17:11:34.160Z,7.00
2023-03-06T17:17:02.054Z,6.10
2023-03-06T17:19:54.697Z,5.40
2023-03-06T17:22:47.158Z,5.40
2023-03-06T17:25:39.715Z,5.80
2023-03-06T17:28:32.115Z,6.10
2023-03-06T17:31:25.516Z,6.40
2023-03-06T17:34:03.445Z,6.00
2023-03-06T17:39:47.326Z,6.80
2023-03-06T17:42:33.288Z,7.80
2023-03-06T17:45:18.574Z,7.50
2023-03-06T17:47:57.172Z,8.10
2023-03-06T17:50:29.277Z,7.90
2023-03-06T17:53:11.382Z,21.10
2023-03-06T17:55:54.842Z,22.90
2023-03-06T17:58:30.215Z,31.60
2023-03-06T18:01:19.092Z,26.00
2023-03-06T18:04:04.554Z,16.80
2023-03-06T18:06:58.397Z,15.10
2023-03-06T18:09:45.290Z,16.80
2023-03-06T18:12:37.679Z,15.30
2023-03-06T18:15:30.203Z,18.50
2023-03-06T18:18:22.705Z,25.20
2023-03-06T18:21:10.210Z,41.70
2023-03-06T18:24:02.629Z,28.10
2023-03-06T18:26:42.204Z,28.70
2023-03-06T18:29:28.336Z,20.30
2023-03-06T18:32:20.791Z,16.70
2023-03-06T18:35:09.481Z,17.00
2023-03-06T18:37:54.579Z,37.00
2023-03-06T18:40:29.977Z,132.60
2023-03-06T18:43:21.980Z,65.90
2023-03-06T18:46:14.935Z,12.10
2023-03-06T18:51:43.406Z,32.70
2023-03-06T18:54:30.361Z,22.10
2023-03-06T18:57:11.547Z,17.40
2023-03-06T18:59:55.601Z,19.00
2023-03-06T19:02:48.182Z,16.00
2023-03-06T19:05:33.643Z,16.70
2023-03-06T19:08:09.781Z,61.80
2023-03-06T19:10:53.604Z,57.30
2023-03-06T19:13:37.283Z,71.00
2023-03-06T19:16:33.851Z,49.80
2023-03-06T19:19:20.722Z,35.50
2023-03-06T19:22:16.629Z,36.00
2023-03-06T19:25:03.893Z,28.40
2023-03-06T19:27:50.562Z,24.30
2023-03-06T19:30:37.010Z,22.20
2023-03-06T19:33:22.683Z,18.40
2023-03-06T19:36:12.279Z,16.60
2023-03-06T19:39:07.560Z,19.50
2023-03-06T19:42:00.335Z,19.50
2023-03-06T19:44:46.817Z,27.20
2023-03-06T19:47:39.452Z,115.10
2023-03-06T19:50:32.074Z,86.60
2023-03-06T19:53:24.665Z,214.60
2023-03-06T19:56:20.486Z,150.20
2023-03-06T19:59:13.467Z,98.40
2023-03-06T20:01:54.658Z,68.50
2023-03-06T20:06:40.673Z,51.00
2023-03-06T20:07:58.750Z,40.00
2023-03-06T20:10:51.036Z,38.90
2023-03-06T20:13:47.328Z,33.20
2023-03-06T20:16:23.010Z,31.10
2023-03-06T20:19:09.321Z,31.60
2023-03-06T20:21:55.913Z,31.30
2023-03-06T20:24:42.467Z,30.40
2023-03-06T20:27:35.074Z,39.30
2023-03-06T20:33:09.750Z,73.80
2023-03-06T20:36:03.920Z,125.90
2023-03-06T20:38:50.785Z,80.50
2023-03-06T20:41:36.039Z,71.80
2023-03-06T20:44:19.884Z,126.90
2023-03-06T20:47:12.352Z,102.00
2023-03-06T20:49:49.237Z,115.10
2023-03-06T20:52:42.169Z,111.80
2023-03-06T20:55:27.754Z,180.30
2023-03-06T21:01:09.759Z,120.20
2023-03-06T21:04:04.494Z,150.40
2023-03-06T21:06:57.830Z,167.70
2023-03-06T21:09:51.733Z,282.30
2023-03-06T21:12:33.146Z,246.20
2023-03-06T21:15:19.590Z,207.80
2023-03-06T21:18:13.199Z,178.40
2023-03-06T21:21:10.297Z,121.20
2023-03-06T21:24:03.686Z,116.40
2023-03-06T21:26:51.292Z,92.80
2023-03-06T21:29:45.507Z,79.70
2023-03-06T21:32:38.130Z,81.90
2023-03-06T21:35:24.400Z,67.50
2023-03-06T21:38:05.468Z,59.40
2023-03-06T21:40:57.875Z,60.10
2023-03-06T21:43:44.497Z,57.00
2023-03-06T21:46:30.938Z,52.80
2023-03-06T21:49:26.422Z,44.90
2023-03-06T21:52:12.596Z,34.90
2023-03-06T21:57:52.469Z,29.30
2023-03-06T22:00:43.785Z,31.00
2023-03-06T22:03:18.368Z,35.30
2023-03-06T22:06:12.661Z,29.70
2023-03-06T22:09:05.350Z,39.00
2023-03-06T22:11:58.350Z,30.00
2023-03-06T22:14:50.577Z,26.00
2023-03-06T22:17:41.699Z,24.70
2023-03-06T22:20:34.159Z,28.90
2023-03-06T22:23:26.704Z,21.80
2023-03-06T22:29:09.786Z,20.70
2023-03-06T22:32:02.167Z,20.80
2023-03-06T22:37:27.204Z,23.80
2023-03-06T22:40:14.212Z,22.70
2023-03-06T22:42:57.394Z,21.90
2023-03-06T22:45:49.966Z,22.00
2023-03-06T22:51:28.097Z,32.90
2023-03-06T22:54:20.804Z,32.40
2023-03-06T22:57:13.402Z,39.60
2023-03-06T22:59:58.692Z,40.20
2023-03-06T23:05:44.619Z,47.70
2023-03-06T23:08:29.685Z,40.10
2023-03-06T23:13:50.704Z,37.50
2023-03-06T23:16:41.805Z,36.60
2023-03-06T23:19:32.469Z,40.60
2023-03-06T23:22:23.208Z,41.10
2023-03-06T23:25:13.970Z,37.80
2023-03-06T23:28:05.573Z,39.00
2023-03-06T23:30:51.176Z,26.00
2023-03-06T23:33:26.153Z,21.00
2023-03-06T23:36:20.308Z,17.00
2023-03-06T23:39:14.336Z,15.00
2023-03-06T23:41:51.508Z,14.70
2023-03-06T23:47:24.765Z,13.90
2023-03-06T23:50:09.567Z,14.00
2023-03-06T23:52:56.309Z,14.20
2023-03-06T23:55:43.253Z,13.90
2023-03-06T23:58:29.318Z,14.50
